Clancy, MT

6:44 AM MDT on October 02, 2014 (GMT -0600)
Gallatin | Change Station
CLOSE
Current Station
Airport
Location: Bozeman,
Elevation: 4475 ft
Nearby Weather Stations

Elev 4475 ft 45.79 °N, 111.16 °W | Updated 48 minutes ago

Mostly Cloudy
Mostly Cloudy
33 °F
Feels Like 29 °F
N
5
Wind Variable Wind from SE

Today
High -- | Low -- °F
--% Chance of Precip.
Yesterday
High -- | Low -- °F
Precip. -- in
7:27 AM 7:05 PM
First Quarter, 58% visible
Pressure 30.08 in
Visibility 10.0 miles
Clouds Clear
Windchill 29 °F
Dew Point 30 °F
Humidity 89%
Rainfall 0.00 in
Snow Depth 0 in , 1 in , 0 in
UV 0 out of 12
Pollen 2.40 out of 12
Air Quality Not available.
Flu Activity Not available.
METAR KBZN 021156Z 14004KT 10SM CLR 01/M01 A3006 RMK AO2 SLP185 70002 T00061011 10033 21006 58002

More Conditions Fewer Conditions

Pressure 30.08 in
Visibility 10.0 miles
Clouds Clear
Windchill 29 °F
Dew Point 30 °F
Humidity 89%
Rainfall 0.00 in
Snow Depth 0 in , 1 in , 0 in
UV 0 out of 12
Pollen 2.40 out of 12
Air Quality Not available.
Flu Activity Not available.
METAR KBZN 021156Z 14004KT 10SM CLR 01/M01 A3006 RMK AO2 SLP185 70002 T00061011 10033 21006 58002

More Conditions Fewer Conditions

10-Day Weather Forecast

Almanac

Astronomy

Oct. 02, 2014 Rise Set
Actual Time 7:27 AM MDT 7:05 PM MDT
Civil Twilight 6:57 AM MDT 7:35 PM MDT
Nautical Twilight 6:22 AM MDT 8:10 PM MDT
Astronomical Twilight 5:47 AM MDT 8:45 PM MDT
Moon 3:33 PM MDT 12:29 AM MDT
Length of Visible Light 12h 37m
Length of Day
11h 37m
Tomorrow will be 3m 17s shorter.
First Quarter, 58% of the Moon is Illuminated
Today
First Quarter
Oct 8
Full
Oct 15
Last Quarter
Oct 23
New
Oct 30
First Quarter

Today's Extremes

State Highs State Lows

Community

WunderPhotos

Upload Photos

1,758,226 photos uploaded!

WunderBlogs® & News

Nearby

Snow Depth

Station Depth Elevation
Copper Camp 0 in 6950 ft
Sacajawea 1 in 6550 ft
Stringer Creek 0 in 6550 ft
Frohner Meadow 0 in 6480 ft
Short Creek 1 in 7000 ft

Earthquake Activity

City Distance Mag. Time & Date
No recent earthquake activity has been reported nearby.
Minimum magnitude displayed is 2.5.

Coastal Water Temperatures

Place Temperature
No Stations Reporting

Nearby Weather Stations